Thunder radar more information blitzortung!


Radar de pluja more information rain snow radar


Visita la nostra xarxa de llocs de meteo:

Template documentation
and downloads

And another site



No particular awareness of the weather is required.    There are no Weather-warnings

Pagina Historial Weather Underground text

Diari Resum Agost 21, 2017 Unitats:  Mètric    Imperial   Tant
« Previous Dia
SegĂźent Dia »
Diari Setmana Mensual Anual Personalitzada
  Maxima: Minima: Media:
Temperatura: -17.8 °C -7.1 °C -3.2 °C
Punt de rosada: -17.8 °C -9 °C -7.7 °C
Humitat: Humidity % 38 % 62 %
Wind Speed: 0 km/h 0 km/h 9.3 km/h
RĂ fegues de vent: 0 km/h - -
Vent:- - SSE
Pression baro: 0 hPa 34361.1 hPa -
Precipitacions: 0 mm    
Historical Graphs
 
 
Dades de taula per Agost 21, 2017
Temps Temperatura Punt de rosada Pression baro Vent Wind Speed RĂ fegues de vent Humitat Rainfall Rate (Hourly)
-17.8 °C -17.8 °C 0 hPa Calm     Humidity % 0 mm
00:04 -5.4 °C -7.8 °C 34496.6 hPa SW 6 km/h 6 km/h 76 % 0 mm
00:05 -6.4 °C -7.8 °C 34496.6 hPa Calm   5.1 km/h 85 % 0 mm
00:15 -6.5 °C -8.1 °C 34496.6 hPa ENE 2.6 km/h 5.1 km/h 84 % 0 mm
00:25 -6.5 °C -7.9 °C 34496.6 hPa Calm   2.6 km/h 85 % 0 mm
00:35 -6.5 °C -8.1 °C 34496.6 hPa Calm   7.7 km/h 84 % 0 mm
00:45 -6.6 °C -8 °C 34496.6 hPa Calm   2.6 km/h 85 % 0 mm
00:55 -6.6 °C -8.1 °C 34496.6 hPa Calm   2.6 km/h 85 % 0 mm
01:05 -6.7 °C -8.1 °C 34496.6 hPa Calm     85 % 0 mm
01:15 -6.7 °C -8.1 °C 34496.6 hPa WSW 2.6 km/h 5.1 km/h 86 % 0 mm
01:25 -6.7 °C -8.1 °C 34496.6 hPa SW 2.6 km/h 5.1 km/h 86 % 0 mm
01:35 -6.7 °C -8.1 °C 34496.6 hPa Calm   2.6 km/h 86 % 0 mm
01:45 -6.8 °C -8.1 °C 34496.6 hPa SW 2.6 km/h 5.1 km/h 86 % 0 mm
01:55 -6.8 °C -8.2 °C 34496.6 hPa Calm     86 % 0 mm
02:05 -6.9 °C -8.2 °C 34496.6 hPa Calm   2.6 km/h 86 % 0 mm
02:15 -6.9 °C -8.2 °C 34496.6 hPa Calm   5.1 km/h 86 % 0 mm
02:25 -6.9 °C -8.2 °C 34496.6 hPa WSW 2.6 km/h 5.1 km/h 86 % 0 mm
02:35 -6.9 °C -8.2 °C 34496.6 hPa Calm   2.6 km/h 86 % 0 mm
02:45 -6.9 °C -8.3 °C 34496.6 hPa WSW 2.6 km/h 2.6 km/h 86 % 0 mm
02:55 -6.9 °C -8.3 °C 34496.6 hPa Calm     86 % 0 mm
03:05 -7 °C -8.3 °C 34496.6 hPa Calm     86 % 0 mm
03:15 -7.1 °C -8.4 °C 34496.6 hPa Calm   2.6 km/h 86 % 0 mm
03:25 -7.1 °C -8.3 °C 34496.6 hPa Calm     87 % 0 mm
03:35 -7.1 °C -8.3 °C 34496.6 hPa Calm     87 % 0 mm
03:45 -7 °C -8.2 °C 34496.6 hPa Calm   2.6 km/h 87 % 0 mm
03:55 -6.9 °C -8.3 °C 34496.6 hPa WSW 2.6 km/h 2.6 km/h 86 % 0 mm
04:05 -6.9 °C -8.1 °C 34496.6 hPa Calm   5.1 km/h 87 % 0 mm
04:15 -6.8 °C -8.2 °C 34496.6 hPa SW 5.1 km/h 7.7 km/h 86 % 0 mm
04:25 -6.7 °C -8.1 °C 34496.6 hPa SW 2.6 km/h 5.1 km/h 85 % 0 mm
04:35 -6.4 °C -7.9 °C 34496.6 hPa SW 2.6 km/h 5.1 km/h 85 % 0 mm
04:45 -6.3 °C -7.9 °C 34496.6 hPa Calm   2.6 km/h 84 % 0 mm
04:55 -6.2 °C -7.7 °C 34496.6 hPa Calm   2.6 km/h 84 % 0 mm
05:05 -5.9 °C -7.6 °C 34496.6 hPa SE 2.6 km/h 5.1 km/h 83 % 0 mm
05:15 -5.4 °C -7.2 °C 34496.6 hPa NNE 5.1 km/h 5.1 km/h 82 % 0 mm
05:25 -5.2 °C -7.3 °C 34496.6 hPa North 2.6 km/h 7.7 km/h 79 % 0 mm
05:35 -5.2 °C -7.6 °C 34533.8 hPa NE 7.7 km/h 10.3 km/h 77 % 0 mm
05:45 -4.9 °C -7.5 °C 34496.6 hPa NE 5.1 km/h 10.3 km/h 75 % 0 mm
10:49 -2.8 °C -6.9 °C 34496.6 hPa WSW 6 km/h 6 km/h 64 % 0 mm
10:54 -2.9 °C -7.2 °C 34496.6 hPa East 6.8 km/h 6.8 km/h 63 % 0 mm
10:59 -3.5 °C -7.8 °C 34496.6 hPa South 15 km/h 15 km/h 62 % 0 mm
11:04 -3 °C -7.1 °C 34496.6 hPa ESE 9 km/h 9 km/h 64 % 0 mm
11:09 -3.1 °C -7.3 °C 34496.6 hPa SE 11.9 km/h 11.9 km/h 63 % 0 mm
11:14 -2.6 °C -6.9 °C 34496.6 hPa ESE 6 km/h 6 km/h 63 % 0 mm
11:19 -2.5 °C -7.1 °C 34496.6 hPa ESE 6 km/h 6 km/h 61 % 0 mm
11:24 -2.3 °C -6.8 °C 34496.6 hPa West 6 km/h 6 km/h 61 % 0 mm
11:29 -2.2 °C -6.9 °C 34496.6 hPa East 9 km/h 9 km/h 60 % 0 mm
11:34 -2.2 °C -6.9 °C 34496.6 hPa WSW 11.9 km/h 11.9 km/h 60 % 0 mm
11:39 -2.3 °C -7.1 °C 34496.6 hPa ENE 9 km/h 9 km/h 59 % 0 mm
11:44 -2.2 °C -7.3 °C 34496.6 hPa NE 9 km/h 9 km/h 58 % 0 mm
11:49 -2.3 °C -7.3 °C 34496.6 hPa ENE 9 km/h 9 km/h 58 % 0 mm
11:54 -2.3 °C -7.7 °C 34496.6 hPa South 15 km/h 15 km/h 56 % 0 mm
11:59 -1.8 °C -7.2 °C 34462.7 hPa ESE 6.3 km/h 6.3 km/h 56 % 0 mm
12:04 -1.8 °C -7.2 °C 34462.7 hPa NNE 6 km/h 6 km/h 56 % 0 mm
12:09 -1.8 °C -7.1 °C 34462.7 hPa SSE 6 km/h 6 km/h 56 % 0 mm
12:14 -1.7 °C -7.3 °C 34462.7 hPa WSW 9 km/h 9 km/h 54 % 0 mm
12:19 -1.4 °C -7.3 °C 34462.7 hPa SW 7.6 km/h 7.6 km/h 53 % 0 mm
12:24 -1.2 °C -7.4 °C 34462.7 hPa SE 6 km/h 6.3 km/h 51 % 0 mm
12:29 -1.1 °C -7.3 °C 34428.8 hPa WSW 9 km/h 9 km/h 51 % 0 mm
12:34 -1.1 °C -7.4 °C 34428.8 hPa South 9.3 km/h 9.3 km/h 50 % 0 mm
12:39 -1 °C -7.6 °C 34428.8 hPa SSE 8 km/h 8 km/h 49 % 0 mm
12:44 -0.6 °C -7.4 °C 34462.7 hPa South 17.9 km/h 17.9 km/h 48 % 0 mm
12:49 -0.8 °C -7.4 °C 34462.7 hPa SW 15 km/h 15 km/h 49 % 0 mm
12:54 -0.9 °C -7.5 °C 34462.7 hPa SSW 9 km/h 9 km/h 49 % 0 mm
12:59 -1.1 °C -8.3 °C 34462.7 hPa ESE 9.3 km/h 9.3 km/h 46 % 0 mm
13:04 -1.3 °C -8.4 °C 34462.7 hPa WSW 6 km/h 6 km/h 46 % 0 mm
13:09 -0.9 °C -7.7 °C 34462.7 hPa West 15 km/h 15 km/h 48 % 0 mm
13:10 -0.9 °C -7.7 °C 34462.7 hPa WSW 15.3 km/h 15.3 km/h 48 % 0 mm
13:15 -0.7 °C -7.9 °C 34462.7 hPa SSE 6.3 km/h 6.3 km/h 46 % 0 mm
13:20 -0.2 °C -7.7 °C 34462.7 hPa WSW 15.6 km/h 15.6 km/h 45 % 0 mm
13:25 -0.4 °C -8.9 °C 34462.7 hPa SE 11.9 km/h 11.9 km/h 40 % 0 mm
13:30 -0.4 °C -8.8 °C 34462.7 hPa NE 9 km/h 9 km/h 40 % 0 mm
13:35 -0.7 °C -8.9 °C 34462.7 hPa East 11.9 km/h 11.9 km/h 41 % 0 mm
13:40 -0.8 °C -9 °C 34462.7 hPa East 15 km/h 15 km/h 41 % 0 mm
13:45 -0.6 °C -8.6 °C 34462.7 hPa South 15.6 km/h 15.6 km/h 42 % 0 mm
13:50 -0.2 °C -8.4 °C 34462.7 hPa NNW 17.9 km/h 17.9 km/h 41 % 0 mm
13:55 -0.2 °C -8.4 °C 34462.7 hPa WSW 9 km/h 9 km/h 41 % 0 mm
14:00 0.1 °C -8.4 °C 34428.8 hPa South 11.9 km/h 11.9 km/h 40 % 0 mm
14:05 0.2 °C -8.1 °C 34428.8 hPa SSW 12.9 km/h 18.2 km/h 41 % 0 mm
14:10 0.3 °C -8 °C 34428.8 hPa West 15 km/h 15 km/h 41 % 0 mm
14:15 0.1 °C -8.2 °C 34428.8 hPa NE 6 km/h 6 km/h 41 % 0 mm
14:20 0.3 °C -8.7 °C 34428.8 hPa SSW 20.3 km/h 20.3 km/h 38 % 0 mm
14:25 0.1 °C -8.7 °C 34428.8 hPa ESE 15 km/h 15 km/h 39 % 0 mm
14:30 0.2 °C -8.1 °C 34428.8 hPa ESE 17.9 km/h 17.9 km/h 41 % 0 mm
14:35 -0.2 °C -8 °C 34428.8 hPa NE 15 km/h 15 km/h 43 % 0 mm
14:40 -0.1 °C -7.9 °C 34428.8 hPa ESE 11.9 km/h 11.9 km/h 43 % 0 mm
14:45 -0.3 °C -7.9 °C 34395 hPa SE 7.7 km/h 15.6 km/h 44 % 0 mm
14:50 -0.9 °C -7.9 °C 34395 hPa ESE 20.9 km/h 20.9 km/h 47 % 0 mm
14:55 -1.1 °C -7.7 °C 34395 hPa ESE 18.2 km/h 28.5 km/h 49 % 0 mm
15:00 -1.1 °C -7.7 °C 34395 hPa East 16.1 km/h 16.1 km/h 49 % 0 mm
15:05 -1 °C -7.4 °C 34395 hPa East 22.5 km/h 22.5 km/h 50 % 0 mm
15:10 -1.2 °C -7.4 °C 34395 hPa East 12.9 km/h 33.6 km/h 51 % 0 mm
15:15 -1.2 °C -7.3 °C 34395 hPa ESE 29.8 km/h 29.8 km/h 52 % 0 mm
15:20 -1.3 °C -7.2 °C 34395 hPa ESE 22 km/h 22 km/h 53 % 0 mm
15:25 -1.4 °C -7.1 °C 34395 hPa East 19.2 km/h 19.2 km/h 54 % 0 mm
15:30 -1.3 °C -7.2 °C 34395 hPa ESE 23.8 km/h 23.8 km/h 53 % 0 mm
15:35 -1.4 °C -7.3 °C 34395 hPa NNE 20.9 km/h 20.9 km/h 53 % 0 mm
15:40 -1.4 °C -7.3 °C 34395 hPa ESE 15 km/h 15 km/h 53 % 0 mm
15:45 -1.3 °C -7.2 °C 34395 hPa South 20.9 km/h 20.9 km/h 53 % 0 mm
15:50 -0.9 °C -7 °C 34395 hPa SSW 11.9 km/h 11.9 km/h 52 % 0 mm
15:55 -0.8 °C -6.9 °C 34395 hPa WSW 9.3 km/h 9.3 km/h 52 % 0 mm
16:00 -0.8 °C -7.1 °C 34395 hPa SSW 20.9 km/h 20.9 km/h 51 % 0 mm
16:05 -1.1 °C -7.1 °C 34395 hPa South 15 km/h 15 km/h 52 % 0 mm
16:10 -0.6 °C -7.1 °C 34395 hPa SW 15 km/h 15 km/h 50 % 0 mm
16:15 -0.3 °C -6.8 °C 34395 hPa WSW 16.1 km/h 16.1 km/h 50 % 0 mm
16:20 -0.2 °C -6.9 °C 34395 hPa South 15 km/h 15 km/h 49 % 0 mm
16:25 0 °C -6.7 °C 34395 hPa SW 15 km/h 15 km/h 49 % 0 mm
16:30 0.1 °C -6.6 °C 34395 hPa SW 20.9 km/h 20.9 km/h 49 % 0 mm
16:35 0.3 °C -6.6 °C 34395 hPa South 15 km/h 15 km/h 48 % 0 mm
16:36 0.3 °C -6.6 °C 34395 hPa WSW 15 km/h 15 km/h 48 % 0 mm
16:41 0.3 °C -6.6 °C 34395 hPa SW 23.8 km/h 23.8 km/h 48 % 0 mm
16:46 0.2 °C -6.7 °C 34395 hPa West 15.3 km/h 15.3 km/h 48 % 0 mm
16:51 0.2 °C -6.8 °C 34395 hPa ESE 11.9 km/h 11.9 km/h 47 % 0 mm
16:56 0.3 °C -6.8 °C 34395 hPa SSW 16.1 km/h 16.1 km/h 47 % 0 mm
17:01 0.4 °C -6.7 °C 34395 hPa South 17.9 km/h 17.9 km/h 47 % 0 mm
17:06 0.2 °C -6.9 °C 34395 hPa ENE 9 km/h 9 km/h 47 % 0 mm
17:11 -0.2 °C -7.1 °C 34395 hPa ESE 12.7 km/h 14.5 km/h 48 % 0 mm
17:16 -0.3 °C -7.2 °C 34395 hPa East 11.9 km/h 11.9 km/h 48 % 0 mm
17:21 -0.4 °C -7.1 °C 34395 hPa WSW 7.6 km/h 7.6 km/h 49 % 0 mm
17:26 -0.2 °C -7.1 °C 34361.1 hPa ESE 9 km/h 9 km/h 48 % 0 mm
17:31 -0.7 °C -7.2 °C 34361.1 hPa ESE 22 km/h 22 km/h 50 % 0 mm
17:36 -1.3 °C -7.3 °C 34361.1 hPa ESE 20.9 km/h 22 km/h 52 % 0 mm
17:41 -1.5 °C -7.4 °C 34395 hPa ESE 29.8 km/h 29.8 km/h 53 % 0 mm
17:46 -1.2 °C -6.9 °C 34395 hPa ESE 15 km/h 15 km/h 54 % 0 mm
17:51 -1.4 °C -7.3 °C 34395 hPa West 15 km/h 15 km/h 53 % 0 mm
17:56 -1.7 °C -7.3 °C 34395 hPa WSW 11.9 km/h 11.9 km/h 55 % 0 mm
18:01 -1.3 °C -7 °C 34395 hPa West 9 km/h 10.3 km/h 54 % 0 mm
18:06 -1.2 °C -7.1 °C 34395 hPa NNE 9 km/h 9 km/h 53 % 0 mm
18:11 -1.2 °C -7.1 °C 34395 hPa ESE 9 km/h 9 km/h 53 % 0 mm
18:16 -1.1 °C -7 °C 34395 hPa SSW 15 km/h 15 km/h 53 % 0 mm
18:21 -0.8 °C -6.9 °C 34395 hPa SW 11.9 km/h 11.9 km/h 52 % 0 mm
18:26 -0.8 °C -6.9 °C 34395 hPa SSW 17.9 km/h 17.9 km/h 52 % 0 mm
18:31 -0.8 °C -6.9 °C 34395 hPa SW 15 km/h 15 km/h 52 % 0 mm
18:36 -1 °C -7.1 °C 34395 hPa SSW 15.3 km/h 15.3 km/h 52 % 0 mm
18:41 -1.3 °C -7.3 °C 34395 hPa SSW 20.9 km/h 20.9 km/h 52 % 0 mm
18:46 -1.4 °C -7.5 °C 34395 hPa WSW 17.9 km/h 17.9 km/h 52 % 0 mm
18:51 -1.4 °C -7.4 °C 34395 hPa SW 15 km/h 15 km/h 52 % 0 mm
18:56 -1.6 °C -7.6 °C 34395 hPa West 20.9 km/h 20.9 km/h 52 % 0 mm
18:57 -1.6 °C -7.7 °C 34395 hPa WSW 15 km/h 15 km/h 52 % 0 mm
19:02 -1.7 °C -7.4 °C 34395 hPa SW 23.8 km/h 23.8 km/h 54 % 0 mm
19:07 -1.8 °C -7.4 °C 34395 hPa SW 23.8 km/h 23.8 km/h 54 % 0 mm
19:12 -1.9 °C -7.6 °C 34395 hPa SW 12.7 km/h 12.7 km/h 54 % 0 mm
19:17 -1.9 °C -7.4 °C 34395 hPa SSW 11.9 km/h 11.9 km/h 55 % 0 mm
19:22 -2.1 °C -7.6 °C 34395 hPa West 23.8 km/h 23.8 km/h 55 % 0 mm
19:27 -2.2 °C -7.6 °C 34395 hPa WSW 18.3 km/h 18.3 km/h 56 % 0 mm
19:32 -2.3 °C -7.7 °C 34395 hPa SW 17.9 km/h 17.9 km/h 56 % 0 mm
19:37 -2.4 °C -7.6 °C 34395 hPa SW 17.9 km/h 17.9 km/h 57 % 0 mm
19:42 -2.5 °C -7.7 °C 34395 hPa SW 20.9 km/h 20.9 km/h 57 % 0 mm
19:47 -2.4 °C -7.6 °C 34395 hPa SW 11.9 km/h 11.9 km/h 57 % 0 mm
19:52 -2.5 °C -7.5 °C 34395 hPa SW 12.7 km/h 12.7 km/h 58 % 0 mm
19:57 -2.7 °C -7.7 °C 34395 hPa SW 17.9 km/h 17.9 km/h 58 % 0 mm
20:02 -2.7 °C -7.7 °C 34395 hPa SSW 6 km/h 6 km/h 58 % 0 mm
20:07 -2.8 °C -7.6 °C 34395 hPa SW 11.9 km/h 11.9 km/h 59 % 0 mm
20:12 -2.9 °C -7.6 °C 34395 hPa SSE 11.9 km/h 11.9 km/h 60 % 0 mm
20:15 -4.8 °C -7.9 °C 34428.8 hPa SW 5.1 km/h 5.1 km/h 71 % 0 mm
20:17 -3.1 °C -7.8 °C 34395 hPa Calm     60 % 0 mm
20:22 -3.2 °C -7.7 °C 34395 hPa East 9.3 km/h 9.3 km/h 61 % 0 mm
20:25 -4.9 °C -7.9 °C 34428.8 hPa SW 5.1 km/h 5.1 km/h 72 % 0 mm
20:27 -3.3 °C -7.8 °C 34361.1 hPa West 4.2 km/h 5.1 km/h 61 % 0 mm
20:32 -3.6 °C -8.1 °C 34361.1 hPa East 11.9 km/h 11.9 km/h 61 % 0 mm
20:35 -5 °C -7.8 °C 34428.8 hPa SW 2.6 km/h 5.1 km/h 73 % 0 mm
20:37 -3.7 °C -8 °C 34361.1 hPa ESE 12.7 km/h 12.7 km/h 62 % 0 mm
20:42 -3.8 °C -7.9 °C 34361.1 hPa ENE 9 km/h 9 km/h 63 % 0 mm
20:45 -5.1 °C -7.7 °C 34428.8 hPa WSW 2.6 km/h 2.6 km/h 75 % 0 mm
20:47 -3.8 °C -8 °C 34361.1 hPa East 11.9 km/h 11.9 km/h 63 % 0 mm
20:52 -3.9 °C -7.9 °C 34361.1 hPa ESE 9 km/h 9 km/h 64 % 0 mm
20:55 -5.1 °C -7.7 °C 34428.8 hPa WSW 2.6 km/h 5.1 km/h 75 % 0 mm
20:57 -3.9 °C -7.8 °C 34395 hPa East 9.3 km/h 9.3 km/h 65 % 0 mm
21:02 -4.1 °C -7.9 °C 34395 hPa ESE 9 km/h 9 km/h 65 % 0 mm
21:05 -5.1 °C -7.6 °C 34395 hPa WSW 5.1 km/h 7.7 km/h 76 % 0 mm
21:07 -4.1 °C -8 °C 34395 hPa ENE 11.9 km/h 11.9 km/h 65 % 0 mm
21:12 -4.2 °C -7.9 °C 34428.8 hPa NE 11.9 km/h 11.9 km/h 66 % 0 mm
21:15 -5.2 °C -7.7 °C 34428.8 hPa WSW 2.6 km/h 5.1 km/h 76 % 0 mm
21:17 -4.2 °C -8 °C 34428.8 hPa NE 15 km/h 15 km/h 66 % 0 mm
21:22 -4.3 °C -8 °C 34428.8 hPa ENE 20.9 km/h 20.9 km/h 66 % 0 mm
21:25 -5.2 °C -7.6 °C 34428.8 hPa WSW 2.6 km/h 7.7 km/h 77 % 0 mm
21:27 -4.3 °C -7.9 °C 34395 hPa ENE 11.9 km/h 11.9 km/h 67 % 0 mm
21:32 -4.3 °C -7.9 °C 34395 hPa ENE 9 km/h 9 km/h 67 % 0 mm
21:35 -5.3 °C -7.6 °C 34428.8 hPa Calm   5.1 km/h 78 % 0 mm
21:37 -4.4 °C -8 °C 34395 hPa ENE 9 km/h 9 km/h 67 % 0 mm
21:42 -4.4 °C -7.9 °C 34395 hPa East 9 km/h 9 km/h 68 % 0 mm
21:45 -5.4 °C -7.7 °C 34395 hPa SW 5.1 km/h 5.1 km/h 78 % 0 mm
21:47 -4.4 °C -7.9 °C 34395 hPa NNE 6.3 km/h 6.3 km/h 68 % 0 mm
21:52 -4.5 °C -7.8 °C 34395 hPa ENE 9 km/h 9 km/h 69 % 0 mm
21:55 -5.6 °C -7.7 °C 34395 hPa SW 2.6 km/h 5.1 km/h 79 % 0 mm
21:57 -4.6 °C -7.9 °C 34428.8 hPa NNE 11.9 km/h 11.9 km/h 69 % 0 mm
22:02 -4.6 °C -7.9 °C 34428.8 hPa East 6 km/h 6 km/h 69 % 0 mm
22:05 -5.6 °C -7.7 °C 34395 hPa SW 2.6 km/h 5.1 km/h 79 % 0 mm
22:07 -4.6 °C -7.9 °C 34428.8 hPa NE 9 km/h 9 km/h 69 % 0 mm
22:12 -4.6 °C -7.9 °C 34428.8 hPa ENE 6 km/h 6 km/h 69 % 0 mm
22:15 -5.7 °C -7.7 °C 34395 hPa Calm   5.1 km/h 80 % 0 mm
22:17 -4.6 °C -7.9 °C 34428.8 hPa NE 11.1 km/h 11.1 km/h 69 % 0 mm
22:22 -4.6 °C -7.9 °C 34428.8 hPa East 6.8 km/h 6.8 km/h 69 % 0 mm
22:25 -5.7 °C -7.7 °C 34395 hPa SW 2.6 km/h 5.1 km/h 80 % 0 mm
22:27 -4.7 °C -8 °C 34428.8 hPa NNE 4.2 km/h 4.2 km/h 69 % 0 mm
22:32 -4.7 °C -8.1 °C 34428.8 hPa ENE 3.1 km/h 3.7 km/h 69 % 0 mm
22:35 -5.8 °C -7.7 °C 34395 hPa Calm   5.1 km/h 81 % 0 mm
22:37 -4.8 °C -8.2 °C 34428.8 hPa NE 6.3 km/h 6.3 km/h 68 % 0 mm
22:42 -4.8 °C -8.2 °C 34428.8 hPa ENE 6 km/h 6 km/h 68 % 0 mm
22:45 -5.8 °C -7.7 °C 34395 hPa SW 2.6 km/h 5.1 km/h 81 % 0 mm
22:47 -4.8 °C -8.2 °C 34428.8 hPa NE 6 km/h 6 km/h 68 % 0 mm
22:52 -4.8 °C -8.3 °C 34428.8 hPa NE 6 km/h   68 % 0 mm
22:55 -5.8 °C -7.6 °C 34395 hPa Calm   2.6 km/h 82 % 0 mm
22:57 -4.8 °C -8.3 °C 34428.8 hPa NE 6 km/h 6 km/h 68 % 0 mm
23:02 -4.9 °C -8.4 °C 34428.8 hPa ENE 6 km/h 6 km/h 68 % 0 mm
23:05 -5.9 °C -7.7 °C 34395 hPa Calm   5.1 km/h 82 % 0 mm
23:07 -4.8 °C -8.3 °C 34428.8 hPa ENE 6 km/h 6 km/h 68 % 0 mm
23:12 -4.8 °C -8.3 °C 34462.7 hPa East 3.1 km/h   68 % 0 mm
23:15 -5.9 °C -7.7 °C 34395 hPa WSW 2.6 km/h 2.6 km/h 82 % 0 mm
23:17 -4.9 °C -8.4 °C 34462.7 hPa NE 4.2 km/h 4.2 km/h 68 % 0 mm
23:22 -4.8 °C -8.3 °C 34462.7 hPa NE 3.1 km/h 3.1 km/h 68 % 0 mm
23:25 -5.9 °C -7.6 °C 34395 hPa Calm   2.6 km/h 83 % 0 mm
23:27 -4.8 °C -8.3 °C 34428.8 hPa NE 3.1 km/h 3.1 km/h 68 % 0 mm
23:32 -4.8 °C -8.3 °C 34428.8 hPa Calm     68 % 0 mm
23:35 -5.9 °C -7.6 °C 34395 hPa Calm   5.1 km/h 83 % 0 mm
23:37 -4.8 °C -8.3 °C 34428.8 hPa Calm     68 % 0 mm
23:42 -4.8 °C -8.3 °C 34428.8 hPa SW 3.1 km/h   68 % 0 mm
23:45 -5.9 °C -7.6 °C 34395 hPa Calm     83 % 0 mm
23:47 -4.8 °C -8.3 °C 34428.8 hPa SW 4.2 km/h   68 % 0 mm
23:52 -4.8 °C -8.2 °C 34428.8 hPa SW 4.2 km/h 4.2 km/h 69 % 0 mm
23:55 -5.9 °C -7.6 °C 34395 hPa Calm     83 % 0 mm
23:58 -4.8 °C -8.2 °C 34428.8 hPa SW 3.1 km/h   69 % 0 mm
Meteo Sesrovires
Elogis d' Weather Underground - 1.5 mb

Guio original per  Jim McMurry - jmcmurry@mwt.net Adaptat per a la plantilla per  Wim van der Kuil - Leuven-Template.eu

Trobareu la nostra informacio del temps tambe a:

Weather Underground

AWEKAS